Time;durP1;ratioP1;P1;durP2;ratioP2;P2;SDS_P1;SDS_P2;PMS_P1;PMS_P2;Temp;Humidity;BMP_temperature;BMP_pressure;BME280_temperature;BME280_humidity;BME280_pressure;Samples;Min_cycle;Max_cycle;Signal;HPM_P1;HPM_P2
2022/04/05 00:00:20;;;;;;;12.53;11.27;;;;;;;;;;5037947;28;20242;-64
2022/04/05 00:02:46;;;;;;;12.83;11.30;;;;;;;;;;5038230;28;20231;-64
2022/04/05 00:05:12;;;;;;;12.47;10.20;;;;;;;;;;5019789;28;20210;-63
2022/04/05 00:07:38;;;;;;;13.87;12.37;;;;;;;;;;5037425;28;20199;-65
2022/04/05 00:10:04;;;;;;;12.13;10.30;;;;;;;;;;5036930;28;20277;-65
2022/04/05 00:12:30;;;;;;;13.83;11.60;;;;;;;;;;5036512;28;20175;-65
2022/04/05 00:14:56;;;;;;;13.40;11.30;;;;;;;;;;5018743;28;20711;-65
2022/04/05 00:17:22;;;;;;;13.13;11.43;;;;;;;;;;5037151;28;20682;-65
2022/04/05 00:19:48;;;;;;;13.50;12.10;;;;;;;;;;5037024;28;20195;-65
2022/04/05 00:22:14;;;;;;;13.40;12.00;;;;;;;;;;5037409;28;20551;-65
2022/04/05 00:24:40;;;;;;;14.97;12.90;;;;;;;;;;5019141;28;20186;-66
2022/04/05 00:27:06;;;;;;;17.07;12.40;;;;;;;;;;5036636;28;20210;-65
2022/04/05 00:29:32;;;;;;;13.63;11.93;;;;;;;;;;5018521;28;20250;-66
2022/04/05 00:31:58;;;;;;;13.40;11.47;;;;;;;;;;5036141;28;20175;-66
2022/04/05 00:34:25;;;;;;;12.77;11.20;;;;;;;;;;5018291;28;20562;-65
2022/04/05 00:36:52;;;;;;;13.50;10.97;;;;;;;;;;5036087;28;20171;-65
2022/04/05 00:39:18;;;;;;;12.90;11.57;;;;;;;;;;5018217;28;20190;-65
2022/04/05 00:41:44;;;;;;;13.87;11.40;;;;;;;;;;5035818;28;20180;-65
2022/04/05 00:44:10;;;;;;;14.10;11.80;;;;;;;;;;5036302;28;20618;-65
2022/04/05 00:46:36;;;;;;;14.10;12.60;;;;;;;;;;5035858;28;20258;-65
2022/04/05 00:49:03;;;;;;;13.80;12.40;;;;;;;;;;5035848;28;20688;-65
2022/04/05 00:51:29;;;;;;;16.27;13.10;;;;;;;;;;5035775;28;20198;-65
2022/04/05 00:53:56;;;;;;;15.23;13.17;;;;;;;;;;5035963;28;20179;-66
2022/04/05 00:56:22;;;;;;;17.57;13.80;;;;;;;;;;5035773;28;20254;-65
2022/04/05 00:58:53;;;;;;;15.40;13.00;;;;;;;;;;5035611;28;20179;-65
2022/04/05 01:01:21;;;;;;;18.53;13.77;;;;;;;;;;5035669;28;20203;-65
2022/04/05 01:03:51;;;;;;;16.13;13.33;;;;;;;;;;5017776;28;20178;-66
2022/04/05 01:06:18;;;;;;;19.00;14.37;;;;;;;;;;5017864;28;20202;-66
2022/04/05 01:08:46;;;;;;;17.67;14.33;;;;;;;;;;5034460;28;20221;-63
2022/04/05 01:11:12;;;;;;;17.13;13.87;;;;;;;;;;5017570;28;20209;-65
2022/04/05 01:13:38;;;;;;;16.70;14.37;;;;;;;;;;5035777;28;20266;-65
2022/04/05 01:16:04;;;;;;;18.03;14.77;;;;;;;;;;5017551;28;20186;-63
2022/04/05 01:18:30;;;;;;;18.07;14.53;;;;;;;;;;5035544;28;20183;-64
2022/04/05 01:20:56;;;;;;;17.57;13.93;;;;;;;;;;5017427;28;20689;-64
2022/04/05 01:23:22;;;;;;;16.93;13.70;;;;;;;;;;5035198;28;20179;-65
2022/04/05 01:25:49;;;;;;;18.07;14.30;;;;;;;;;;5035218;28;20659;-65
2022/04/05 01:28:15;;;;;;;17.47;13.97;;;;;;;;;;5045021;22;20253;-66
2022/04/05 01:30:41;;;;;;;18.73;14.23;;;;;;;;;;5015960;28;20698;-66
2022/04/05 01:33:07;;;;;;;20.33;15.83;;;;;;;;;;4997820;28;20647;-66
2022/04/05 01:35:34;;;;;;;18.80;15.77;;;;;;;;;;4997742;28;20530;-66
2022/04/05 01:38:02;;;;;;;22.50;17.60;;;;;;;;;;5015519;28;20188;-66
2022/04/05 01:40:28;;;;;;;26.07;18.87;;;;;;;;;;5015574;28;20176;-66
2022/04/05 01:42:54;;;;;;;27.00;20.60;;;;;;;;;;4997445;28;20184;-66
2022/04/05 01:45:20;;;;;;;30.57;21.27;;;;;;;;;;5015142;28;20180;-66
2022/04/05 01:47:46;;;;;;;35.83;22.43;;;;;;;;;;4997292;28;20219;-66
2022/04/05 01:50:12;;;;;;;33.13;23.20;;;;;;;;;;5014883;28;20643;-66
2022/04/05 01:52:38;;;;;;;34.50;24.37;;;;;;;;;;4997417;28;20189;-67
2022/04/05 01:55:05;;;;;;;33.00;23.03;;;;;;;;;;4997425;28;20262;-67
2022/04/05 01:57:31;;;;;;;34.57;24.13;;;;;;;;;;4997568;28;20719;-66
2022/04/05 01:59:57;;;;;;;39.72;30.27;;;;;;;;;;4996284;28;20429;-66
2022/04/05 02:02:23;;;;;;;35.23;25.87;;;;;;;;;;4998474;28;20184;-66
2022/04/05 02:04:49;;;;;;;40.50;26.30;;;;;;;;;;5017311;28;20176;-66
2022/04/05 02:07:16;;;;;;;39.03;24.43;;;;;;;;;;5018001;28;20263;-66
2022/04/05 02:09:43;;;;;;;34.77;23.80;;;;;;;;;;5000927;28;20191;-66
2022/04/05 02:12:12;;;;;;;35.20;23.53;;;;;;;;;;5019277;28;20176;-66
2022/04/05 02:14:38;;;;;;;33.73;23.27;;;;;;;;;;5018636;28;20180;-66
2022/04/05 02:17:05;;;;;;;38.97;23.80;;;;;;;;;;5000156;28;20233;-66
2022/04/05 02:19:31;;;;;;;32.60;21.57;;;;;;;;;;4997996;28;20235;-66
2022/04/05 02:21:57;;;;;;;36.50;23.60;;;;;;;;;;5015080;28;20214;-66
2022/04/05 02:24:23;;;;;;;41.60;23.23;;;;;;;;;;5015061;28;20180;-66
2022/04/05 02:26:49;;;;;;;24.53;17.77;;;;;;;;;;5014961;28;20180;-66
2022/04/05 02:29:16;;;;;;;11.53;9.67;;;;;;;;;;5014054;28;20660;-66
2022/04/05 02:31:42;;;;;;;13.57;10.23;;;;;;;;;;4996699;28;20552;-66
2022/04/05 02:34:08;;;;;;;11.60;8.93;;;;;;;;;;5014440;28;20176;-67
2022/04/05 02:36:34;;;;;;;8.80;6.10;;;;;;;;;;5014288;28;20176;-67
2022/04/05 02:39:00;;;;;;;7.30;6.17;;;;;;;;;;4996463;28;20199;-66
2022/04/05 02:41:27;;;;;;;6.30;5.60;;;;;;;;;;4996529;28;20183;-67
2022/04/05 02:43:53;;;;;;;6.33;5.53;;;;;;;;;;4996527;28;20219;-67
2022/04/05 02:46:19;;;;;;;8.00;5.30;;;;;;;;;;5014197;28;20191;-66
2022/04/05 02:48:46;;;;;;;5.90;5.30;;;;;;;;;;4996339;28;20630;-67
2022/04/05 02:51:16;;;;;;;8.17;6.03;;;;;;;;;;4996478;28;20176;-67
2022/04/05 02:53:43;;;;;;;6.47;5.63;;;;;;;;;;5014423;28;20640;-66
2022/04/05 02:56:09;;;;;;;7.63;6.33;;;;;;;;;;5013878;28;20613;-66
2022/04/05 02:58:35;;;;;;;6.40;5.60;;;;;;;;;;5013883;28;20206;-66
2022/04/05 03:01:02;;;;;;;7.47;6.00;;;;;;;;;;4996305;28;20653;-66
2022/04/05 03:03:28;;;;;;;7.70;6.43;;;;;;;;;;5015168;28;20179;-66
2022/04/05 03:05:54;;;;;;;6.83;6.13;;;;;;;;;;5015000;28;20211;-66
2022/04/05 03:08:20;;;;;;;6.50;5.80;;;;;;;;;;4996470;28;20255;-66
2022/04/05 03:10:45;;;;;;;6.93;5.70;;;;;;;;;;5013998;28;20179;-66
2022/04/05 03:13:12;;;;;;;7.50;5.57;;;;;;;;;;5014047;28;20178;-66
2022/04/05 03:15:38;;;;;;;6.30;5.37;;;;;;;;;;4995925;28;20529;-66
2022/04/05 03:18:04;;;;;;;6.27;5.53;;;;;;;;;;4995902;28;20261;-66
2022/04/05 03:20:31;;;;;;;5.73;5.13;;;;;;;;;;5013814;28;20179;-66
2022/04/05 03:23:00;;;;;;;6.83;5.87;;;;;;;;;;5013799;28;20176;-66
2022/04/05 03:25:26;;;;;;;8.23;6.47;;;;;;;;;;5013617;28;20203;-66
2022/04/05 03:27:52;;;;;;;6.27;5.67;;;;;;;;;;5013207;28;20702;-66
2022/04/05 03:30:19;;;;;;;10.30;6.17;;;;;;;;;;5013771;28;20171;-66
2022/04/05 03:32:46;;;;;;;8.83;5.87;;;;;;;;;;5017538;28;20266;-67
2022/04/05 03:35:12;;;;;;;6.20;5.60;;;;;;;;;;5017514;28;20179;-67
2022/04/05 03:37:38;;;;;;;8.53;6.50;;;;;;;;;;4999690;28;20200;-67
2022/04/05 03:40:05;;;;;;;9.23;6.23;;;;;;;;;;5017316;28;20258;-66
2022/04/05 03:42:31;;;;;;;9.23;6.23;;;;;;;;;;5017391;28;20186;-66
2022/04/05 03:44:57;;;;;;;6.33;5.73;;;;;;;;;;5017327;28;20172;-66
2022/04/05 03:47:23;;;;;;;7.97;6.43;;;;;;;;;;5017444;28;20263;-66
2022/04/05 03:49:49;;;;;;;8.93;6.73;;;;;;;;;;4999535;28;20185;-67
2022/04/05 03:52:15;;;;;;;9.10;6.80;;;;;;;;;;5017264;28;20180;-67
2022/04/05 03:54:41;;;;;;;8.87;7.03;;;;;;;;;;5017158;28;20176;-66
2022/04/05 03:57:07;;;;;;;7.00;6.30;;;;;;;;;;5017273;28;20242;-67
2022/04/05 03:59:33;;;;;;;8.83;7.43;;;;;;;;;;5016864;28;20207;-67
2022/04/05 04:01:59;;;;;;;10.03;7.17;;;;;;;;;;5017100;28;20222;-68
2022/04/05 04:04:25;;;;;;;9.63;7.70;;;;;;;;;;4999539;28;20195;-67
2022/04/05 04:06:51;;;;;;;9.73;7.50;;;;;;;;;;5016793;28;20183;-67
2022/04/05 04:09:17;;;;;;;10.77;7.43;;;;;;;;;;5016613;28;20208;-67
2022/04/05 04:11:44;;;;;;;9.63;7.27;;;;;;;;;;5016834;28;20179;-67
2022/04/05 04:14:10;;;;;;;10.27;7.40;;;;;;;;;;4999177;28;20590;-67
2022/04/05 04:16:37;;;;;;;12.13;7.83;;;;;;;;;;4999299;28;20682;-67
2022/04/05 04:19:03;;;;;;;9.87;7.13;;;;;;;;;;5016826;28;20664;-67
2022/04/05 04:21:29;;;;;;;8.97;7.17;;;;;;;;;;4999078;28;20190;-67
2022/04/05 04:23:55;;;;;;;9.30;6.70;;;;;;;;;;4999073;28;20278;-67
2022/04/05 04:26:21;;;;;;;9.07;7.13;;;;;;;;;;4998983;28;20187;-67
2022/04/05 04:28:49;;;;;;;11.20;6.93;;;;;;;;;;5016366;28;20254;-67
2022/04/05 04:31:15;;;;;;;13.10;7.80;;;;;;;;;;5016557;28;20184;-67
2022/04/05 04:33:41;;;;;;;12.27;8.00;;;;;;;;;;5016436;28;20176;-67
2022/04/05 04:36:07;;;;;;;12.87;8.67;;;;;;;;;;5016386;28;20212;-67
2022/04/05 04:38:33;;;;;;;13.23;7.80;;;;;;;;;;5016271;28;20200;-66
2022/04/05 04:40:59;;;;;;;11.27;7.53;;;;;;;;;;5016567;28;20180;-67
2022/04/05 04:43:27;;;;;;;16.90;8.50;;;;;;;;;;5014995;28;20176;-67
2022/04/05 04:45:53;;;;;;;12.07;7.83;;;;;;;;;;5016324;28;20250;-67
2022/04/05 04:48:20;;;;;;;13.10;8.70;;;;;;;;;;4998429;28;20294;-67
2022/04/05 04:50:46;;;;;;;10.77;7.97;;;;;;;;;;5016168;28;20666;-68
2022/04/05 04:53:13;;;;;;;14.10;8.20;;;;;;;;;;5016257;28;20184;-67
2022/04/05 04:55:39;;;;;;;12.53;7.43;;;;;;;;;;4998454;28;20203;-67
2022/04/05 04:58:05;;;;;;;12.30;8.47;;;;;;;;;;5016369;28;20649;-67
2022/04/05 05:00:31;;;;;;;13.53;8.40;;;;;;;;;;4998392;28;20247;-67
2022/04/05 05:02:57;;;;;;;13.53;8.57;;;;;;;;;;5016124;28;20211;-67
2022/04/05 05:05:23;;;;;;;21.13;10.03;;;;;;;;;;5015914;28;20176;-67
2022/04/05 05:07:50;;;;;;;18.57;10.60;;;;;;;;;;4998156;28;20297;-67
2022/04/05 05:10:16;;;;;;;17.03;10.93;;;;;;;;;;4998228;28;20643;-67
2022/04/05 05:12:43;;;;;;;22.73;12.80;;;;;;;;;;5015950;28;20183;-67
2022/04/05 05:15:10;;;;;;;21.43;11.33;;;;;;;;;;4998199;28;20270;-67
2022/04/05 05:17:36;;;;;;;25.37;13.47;;;;;;;;;;5015571;28;20218;-67
2022/04/05 05:20:03;;;;;;;31.97;14.80;;;;;;;;;;4998414;28;20184;-67
2022/04/05 05:22:29;;;;;;;24.60;13.00;;;;;;;;;;5015748;28;20200;-67
2022/04/05 05:24:54;;;;;;;26.63;13.93;;;;;;;;;;5015508;28;20270;-66
2022/04/05 05:27:20;;;;;;;28.00;13.30;;;;;;;;;;4997794;28;20179;-66
2022/04/05 05:29:46;;;;;;;33.13;13.73;;;;;;;;;;5015293;28;20200;-66
2022/04/05 05:32:12;;;;;;;26.20;14.17;;;;;;;;;;4998051;28;20265;-66
2022/04/05 05:34:38;;;;;;;32.00;16.60;;;;;;;;;;5015382;28;20184;-67
2022/04/05 05:37:05;;;;;;;30.50;17.60;;;;;;;;;;5015215;28;20202;-67
2022/04/05 05:39:32;;;;;;;46.43;27.57;;;;;;;;;;5015050;28;20192;-67
2022/04/05 05:41:58;;;;;;;68.57;40.77;;;;;;;;;;4997519;28;20235;-66
2022/04/05 05:44:24;;;;;;;61.13;36.33;;;;;;;;;;5015597;28;20541;-67
2022/04/05 05:46:50;;;;;;;45.97;28.50;;;;;;;;;;5014969;28;20636;-66
2022/04/05 05:49:16;;;;;;;51.57;32.60;;;;;;;;;;5015567;28;20294;-67
2022/04/05 05:51:42;;;;;;;32.53;19.37;;;;;;;;;;5014933;28;20172;-66
2022/04/05 05:54:08;;;;;;;33.00;18.93;;;;;;;;;;5014800;28;20230;-66
2022/04/05 05:56:34;;;;;;;29.17;18.30;;;;;;;;;;5014776;28;20247;-66
2022/04/05 05:59:00;;;;;;;29.50;17.63;;;;;;;;;;5015279;28;20203;-66
2022/04/05 06:01:26;;;;;;;32.43;18.00;;;;;;;;;;5014653;28;20187;-66
2022/04/05 06:03:52;;;;;;;29.93;19.70;;;;;;;;;;5014796;28;20191;-66
2022/04/05 06:06:18;;;;;;;27.57;17.77;;;;;;;;;;5014706;28;20249;-66
2022/04/05 06:08:44;;;;;;;28.57;16.37;;;;;;;;;;5014554;28;20204;-66
2022/04/05 06:11:10;;;;;;;44.97;27.60;;;;;;;;;;5014841;28;20225;-66
2022/04/05 06:13:36;;;;;;;37.53;24.03;;;;;;;;;;5015190;28;20184;-66
2022/04/05 06:16:03;;;;;;;31.77;19.40;;;;;;;;;;5014779;28;20658;-66
2022/04/05 06:18:29;;;;;;;29.87;16.93;;;;;;;;;;4996901;28;20714;-66
2022/04/05 06:20:55;;;;;;;28.60;17.47;;;;;;;;;;4996933;28;20215;-66
2022/04/05 06:23:21;;;;;;;30.40;18.00;;;;;;;;;;5014508;28;20239;-66
2022/04/05 06:25:47;;;;;;;30.20;17.90;;;;;;;;;;4997085;28;20198;-66
2022/04/05 06:28:15;;;;;;;27.50;16.17;;;;;;;;;;5014172;28;20220;-66
2022/04/05 06:30:41;;;;;;;27.67;16.90;;;;;;;;;;5014827;28;20174;-66
2022/04/05 06:33:25;;;;;;;32.00;18.13;;;;;;;;;;4997022;28;20543;-66
2022/04/05 06:35:52;;;;;;;28.57;17.30;;;;;;;;;;5014233;28;20199;-66
2022/04/05 06:38:19;;;;;;;25.93;17.57;;;;;;;;;;4996694;28;20208;-66
2022/04/05 06:40:45;;;;;;;34.33;20.57;;;;;;;;;;5014264;28;20180;-66
2022/04/05 06:43:12;;;;;;;24.10;16.57;;;;;;;;;;5023624;28;20202;-67
2022/04/05 06:45:38;;;;;;;26.10;17.27;;;;;;;;;;5007536;28;20188;-66
2022/04/05 06:48:06;;;;;;;24.17;15.73;;;;;;;;;;5022611;28;20238;-66
2022/04/05 06:50:32;;;;;;;31.37;16.53;;;;;;;;;;5001013;28;20191;-66
2022/04/05 06:52:59;;;;;;;28.80;17.03;;;;;;;;;;5015352;28;20255;-67
2022/04/05 06:55:25;;;;;;;25.23;15.23;;;;;;;;;;5014760;28;20172;-66
2022/04/05 06:57:52;;;;;;;25.23;15.83;;;;;;;;;;4996418;28;20234;-66
2022/04/05 07:00:19;;;;;;;24.47;15.27;;;;;;;;;;4996932;28;20282;-66
2022/04/05 07:02:46;;;;;;;30.00;17.03;;;;;;;;;;5013796;28;20234;-66
2022/04/05 07:05:12;;;;;;;22.73;15.03;;;;;;;;;;5013156;28;20271;-66
2022/04/05 07:07:38;;;;;;;27.77;17.57;;;;;;;;;;4995908;28;20215;-66
2022/04/05 07:10:05;;;;;;;24.90;16.07;;;;;;;;;;5013892;28;20176;-66
2022/04/05 07:12:31;;;;;;;27.00;16.17;;;;;;;;;;5013866;28;20176;-66
2022/04/05 07:14:57;;;;;;;26.07;16.90;;;;;;;;;;5013646;28;20596;-66
2022/04/05 07:17:23;;;;;;;24.70;15.33;;;;;;;;;;5014099;28;20183;-66
2022/04/05 07:19:49;;;;;;;24.93;15.07;;;;;;;;;;4996354;28;20180;-67
2022/04/05 07:22:15;;;;;;;20.93;14.00;;;;;;;;;;5014519;28;20187;-66
2022/04/05 07:24:41;;;;;;;23.33;15.07;;;;;;;;;;4996499;28;20652;-66
2022/04/05 07:27:07;;;;;;;23.17;14.93;;;;;;;;;;5013816;28;20254;-67
2022/04/05 07:29:33;;;;;;;25.00;13.93;;;;;;;;;;5013393;28;20310;-66
2022/04/05 07:32:00;;;;;;;20.43;14.37;;;;;;;;;;5013477;28;20259;-66
2022/04/05 07:34:26;;;;;;;23.53;13.57;;;;;;;;;;4995750;28;20188;-66
2022/04/05 07:36:52;;;;;;;18.17;13.40;;;;;;;;;;5013424;28;20524;-66
2022/04/05 07:39:21;;;;;;;21.30;14.20;;;;;;;;;;4995767;28;20231;-67
2022/04/05 07:41:47;;;;;;;24.27;13.43;;;;;;;;;;5013349;28;20190;-66
2022/04/05 07:44:13;;;;;;;17.73;13.03;;;;;;;;;;4995855;28;20179;-67
2022/04/05 07:46:39;;;;;;;24.40;15.70;;;;;;;;;;5013478;28;20184;-67
2022/04/05 07:49:05;;;;;;;20.57;14.67;;;;;;;;;;5013308;28;20285;-67
2022/04/05 07:51:31;;;;;;;23.10;15.73;;;;;;;;;;5013307;28;20172;-67
2022/04/05 07:53:57;;;;;;;24.10;15.20;;;;;;;;;;4995532;28;20707;-67
2022/04/05 07:56:23;;;;;;;24.80;16.03;;;;;;;;;;5013303;28;20172;-67
2022/04/05 07:58:49;;;;;;;21.63;15.97;;;;;;;;;;4995431;28;20219;-67
2022/04/05 08:03:45;;;;;;;27.70;16.90;;;;;;;;;;5017809;22;20248;-63
2022/04/05 08:06:11;;;;;;;23.77;16.43;;;;;;;;;;4976073;28;20212;-63
2022/04/05 08:08:37;;;;;;;25.40;18.07;;;;;;;;;;4975882;28;20231;-63
2022/04/05 08:11:03;;;;;;;27.97;17.67;;;;;;;;;;4993572;28;20176;-65
2022/04/05 08:13:29;;;;;;;25.30;18.17;;;;;;;;;;4993207;28;20205;-65
2022/04/05 08:15:56;;;;;;;25.53;17.40;;;;;;;;;;4993378;28;20548;-63
2022/04/05 08:18:22;;;;;;;26.07;18.80;;;;;;;;;;4996671;28;20590;-63
2022/04/05 08:20:48;;;;;;;26.33;18.30;;;;;;;;;;4996915;28;20185;-62
2022/04/05 08:23:14;;;;;;;24.13;17.37;;;;;;;;;;4996725;28;20204;-63
2022/04/05 08:25:40;;;;;;;25.80;18.90;;;;;;;;;;4997124;28;20183;-62
2022/04/05 08:28:07;;;;;;;22.37;17.13;;;;;;;;;;4996737;28;20255;-63
2022/04/05 08:30:33;;;;;;;22.67;17.67;;;;;;;;;;4997121;28;20183;-64
2022/04/05 08:32:59;;;;;;;22.87;16.37;;;;;;;;;;4996618;28;20279;-64
2022/04/05 08:35:25;;;;;;;24.47;17.67;;;;;;;;;;4978963;28;20679;-64
2022/04/05 08:37:52;;;;;;;24.53;18.30;;;;;;;;;;4996808;28;20235;-62
2022/04/05 08:40:20;;;;;;;21.33;17.17;;;;;;;;;;4978994;28;20185;-62
2022/04/05 08:42:47;;;;;;;23.90;17.90;;;;;;;;;;4996618;28;20204;-63
2022/04/05 08:45:14;;;;;;;21.43;16.27;;;;;;;;;;4996439;28;20199;-62
2022/04/05 08:47:46;;;;;;;24.43;17.63;;;;;;;;;;4996632;28;20180;-62
2022/04/05 08:50:13;;;;;;;22.67;17.20;;;;;;;;;;4996832;28;20184;-62
2022/04/05 08:52:39;;;;;;;23.20;15.83;;;;;;;;;;4996545;28;20734;-62
2022/04/05 08:55:05;;;;;;;21.07;17.10;;;;;;;;;;4996169;28;20279;-62
2022/04/05 08:57:31;;;;;;;19.43;16.67;;;;;;;;;;4978715;28;20181;-62
2022/04/05 08:59:57;;;;;;;21.87;15.00;;;;;;;;;;4996270;28;20177;-62
2022/04/05 09:02:26;;;;;;;25.83;16.03;;;;;;;;;;4995998;28;20212;-62
2022/04/05 09:04:52;;;;;;;13.93;11.97;;;;;;;;;;4996305;28;20235;-62
2022/04/05 09:07:26;;;;;;;17.77;14.30;;;;;;;;;;4995959;28;20640;-61
2022/04/05 09:10:09;;;;;;;16.80;13.73;;;;;;;;;;4996177;28;20220;-62
2022/04/05 09:12:41;;;;;;;21.47;13.50;;;;;;;;;;4995937;28;20235;-61
2022/04/05 09:15:11;;;;;;;14.83;13.10;;;;;;;;;;4978262;28;20177;-62
2022/04/05 09:17:40;;;;;;;15.67;13.60;;;;;;;;;;4995791;28;20181;-62
2022/04/05 09:20:07;;;;;;;16.47;13.00;;;;;;;;;;4998587;28;20259;-64
2022/04/05 09:22:34;;;;;;;16.77;13.27;;;;;;;;;;4995904;28;20239;-64
2022/04/05 09:25:03;;;;;;;13.47;12.07;;;;;;;;;;4996501;28;20226;-64
2022/04/05 09:27:42;;;;;;;17.17;12.80;;;;;;;;;;4978483;28;20235;-64
2022/04/05 09:30:11;;;;;;;15.27;11.60;;;;;;;;;;4977358;28;20169;-64
2022/04/05 09:32:39;;;;;;;15.00;12.93;;;;;;;;;;4995592;28;20196;-64
2022/04/05 09:35:06;;;;;;;15.40;12.13;;;;;;;;;;4995539;28;20546;-65
2022/04/05 09:37:38;;;;;;;17.43;12.93;;;;;;;;;;4995467;28;20208;-65
2022/04/05 09:40:24;;;;;;;17.67;11.80;;;;;;;;;;4977991;28;20656;-65
2022/04/05 09:43:10;;;;;;;13.47;12.07;;;;;;;;;;4995500;28;20193;-65
2022/04/05 09:45:58;;;;;;;16.23;12.27;;;;;;;;;;4995547;28;20176;-65
2022/04/05 09:48:29;;;;;;;13.70;11.77;;;;;;;;;;4995614;28;20192;-65
2022/04/05 09:51:10;;;;;;;15.87;11.97;;;;;;;;;;4995329;28;20595;-65
2022/04/05 09:53:39;;;;;;;13.53;10.53;;;;;;;;;;4995629;28;20673;-65
2022/04/05 09:56:13;;;;;;;13.17;10.70;;;;;;;;;;4995785;28;20180;-65
2022/04/05 09:58:47;;;;;;;13.77;9.73;;;;;;;;;;4995548;28;20190;-63
2022/04/05 10:01:13;;;;;;;10.17;8.97;;;;;;;;;;4995532;28;20204;-63
2022/04/05 10:03:39;;;;;;;13.03;9.53;;;;;;;;;;4995448;28;20223;-64
2022/04/05 10:06:06;;;;;;;10.33;8.40;;;;;;;;;;4995242;28;20295;-65
2022/04/05 10:08:32;;;;;;;10.83;9.67;;;;;;;;;;4995354;28;20207;-65
2022/04/05 10:10:59;;;;;;;9.70;8.70;;;;;;;;;;4995398;28;20172;-66
2022/04/05 10:13:25;;;;;;;11.13;8.60;;;;;;;;;;4995130;28;20202;-63
2022/04/05 10:15:52;;;;;;;9.60;8.70;;;;;;;;;;4995337;28;20744;-64
2022/04/05 10:18:20;;;;;;;9.13;8.13;;;;;;;;;;4995223;28;20183;-63
2022/04/05 10:20:48;;;;;;;14.10;12.70;;;;;;;;;;4995014;28;20184;-64
2022/04/05 10:23:16;;;;;;;12.47;9.90;;;;;;;;;;4994757;28;20204;-64
2022/04/05 10:25:42;;;;;;;8.57;6.00;;;;;;;;;;4995401;28;20181;-64
2022/04/05 10:28:08;;;;;;;9.20;7.03;;;;;;;;;;4995231;28;20284;-63
2022/04/05 10:30:38;;;;;;;8.00;6.87;;;;;;;;;;4995166;28;20268;-64
2022/04/05 10:33:07;;;;;;;8.80;6.10;;;;;;;;;;4994903;28;20254;-63
2022/04/05 10:35:38;;;;;;;6.73;6.03;;;;;;;;;;4977379;28;20184;-64
2022/04/05 10:38:17;;;;;;;7.60;6.30;;;;;;;;;;4977332;28;20176;-64
2022/04/05 10:40:43;;;;;;;8.27;6.33;;;;;;;;;;4994731;28;20183;-64
2022/04/05 10:43:17;;;;;;;7.23;6.53;;;;;;;;;;4977076;28;20200;-65
2022/04/05 10:45:43;;;;;;;7.13;6.13;;;;;;;;;;4977445;28;20671;-65
2022/04/05 10:48:20;;;;;;;6.93;6.20;;;;;;;;;;4994647;28;20252;-65
2022/04/05 10:50:47;;;;;;;7.53;6.60;;;;;;;;;;4977137;28;20571;-64
2022/04/05 10:53:23;;;;;;;9.33;7.03;;;;;;;;;;4994530;28;20195;-63
2022/04/05 10:56:05;;;;;;;8.47;7.37;;;;;;;;;;4976885;28;20234;-64
2022/04/05 10:58:31;;;;;;;12.20;8.67;;;;;;;;;;4994180;28;20176;-64
2022/04/05 11:01:18;;;;;;;7.80;7.00;;;;;;;;;;4994551;28;20259;-64
2022/04/05 11:04:03;;;;;;;8.23;7.47;;;;;;;;;;4994028;28;20223;-64
2022/04/05 11:06:29;;;;;;;8.77;7.87;;;;;;;;;;4976765;28;20195;-63
2022/04/05 11:08:55;;;;;;;9.43;7.93;;;;;;;;;;4994235;28;20204;-64
2022/04/05 11:11:25;;;;;;;10.23;7.50;;;;;;;;;;4994472;28;20208;-64
2022/04/05 11:13:56;;;;;;;10.17;7.63;;;;;;;;;;4994408;28;20167;-63
2022/04/05 11:16:24;;;;;;;8.50;7.70;;;;;;;;;;4994516;28;20172;-65
2022/04/05 11:18:57;;;;;;;8.20;7.13;;;;;;;;;;4994909;28;20188;-65
2022/04/05 11:21:23;;;;;;;11.63;7.87;;;;;;;;;;4994302;28;20678;-64
2022/04/05 11:23:53;;;;;;;9.07;8.17;;;;;;;;;;4994105;28;20186;-65
2022/04/05 11:26:35;;;;;;;8.97;7.53;;;;;;;;;;4976695;28;20188;-65
2022/04/05 11:29:03;;;;;;;8.83;7.97;;;;;;;;;;4976842;28;20706;-64
2022/04/05 11:31:40;;;;;;;8.80;7.33;;;;;;;;;;4976594;28;20184;-64
2022/04/05 11:34:24;;;;;;;9.73;8.37;;;;;;;;;;4993985;28;20176;-65
2022/04/05 11:36:51;;;;;;;9.60;8.70;;;;;;;;;;4994029;28;20180;-65
2022/04/05 11:39:17;;;;;;;14.10;8.80;;;;;;;;;;4993862;28;20210;-64
2022/04/05 11:41:43;;;;;;;9.70;8.67;;;;;;;;;;4993724;28;20265;-64
2022/04/05 11:44:14;;;;;;;11.77;9.07;;;;;;;;;;4976612;28;20181;-65
2022/04/05 11:46:41;;;;;;;11.70;8.10;;;;;;;;;;4994730;28;20519;-66
2022/04/05 11:49:08;;;;;;;9.93;7.73;;;;;;;;;;4994155;28;20235;-65
2022/04/05 11:51:36;;;;;;;15.20;10.47;;;;;;;;;;4994080;28;20179;-65
2022/04/05 11:54:04;;;;;;;22.70;11.40;;;;;;;;;;4980367;28;20227;-65
2022/04/05 11:56:30;;;;;;;24.40;13.20;;;;;;;;;;4980249;28;20184;-63
2022/04/05 11:58:57;;;;;;;15.63;9.30;;;;;;;;;;4997821;28;20603;-64
2022/04/05 12:01:24;;;;;;;11.53;8.33;;;;;;;;;;4997395;28;20212;-65
2022/04/05 12:03:52;;;;;;;8.03;7.33;;;;;;;;;;4979999;28;20215;-64
2022/04/05 12:06:32;;;;;;;8.20;7.40;;;;;;;;;;4997459;28;20177;-65
2022/04/05 12:08:59;;;;;;;7.77;6.60;;;;;;;;;;4997949;28;20195;-65
2022/04/05 12:11:26;;;;;;;6.87;6.27;;;;;;;;;;4997379;28;20637;-64
2022/04/05 12:13:53;;;;;;;9.10;7.47;;;;;;;;;;4979943;28;20656;-64
2022/04/05 12:16:19;;;;;;;8.07;6.50;;;;;;;;;;4980002;28;20185;-64
2022/04/05 12:18:46;;;;;;;7.40;6.70;;;;;;;;;;4979982;28;20184;-63
2022/04/05 12:21:12;;;;;;;6.80;6.20;;;;;;;;;;4997463;28;20311;-64
2022/04/05 12:23:39;;;;;;;6.17;5.57;;;;;;;;;;4997944;28;20203;-64
2022/04/05 12:26:13;;;;;;;9.00;6.33;;;;;;;;;;4997923;28;20184;-64
2022/04/05 12:28:40;;;;;;;9.87;7.03;;;;;;;;;;4997779;28;20570;-64
2022/04/05 12:31:22;;;;;;;8.00;6.40;;;;;;;;;;4997305;28;20664;-64
2022/04/05 12:33:53;;;;;;;8.80;6.60;;;;;;;;;;4997213;28;20173;-64
2022/04/05 12:36:19;;;;;;;7.80;6.80;;;;;;;;;;4979840;28;20227;-64
2022/04/05 12:38:45;;;;;;;7.23;6.27;;;;;;;;;;4997356;28;20181;-63
2022/04/05 12:41:15;;;;;;;7.73;6.90;;;;;;;;;;4997019;28;20209;-64
2022/04/05 12:43:41;;;;;;;8.47;7.40;;;;;;;;;;4997237;28;20250;-65
2022/04/05 12:46:08;;;;;;;11.53;7.57;;;;;;;;;;4996849;28;20181;-64
2022/04/05 12:48:34;;;;;;;8.13;7.30;;;;;;;;;;4979219;28;20204;-64
2022/04/05 12:51:00;;;;;;;7.63;6.83;;;;;;;;;;4996869;28;20188;-64
2022/04/05 12:53:27;;;;;;;7.93;7.10;;;;;;;;;;4979151;28;20251;-64
2022/04/05 12:55:56;;;;;;;6.90;6.20;;;;;;;;;;4997122;28;20557;-64
2022/04/05 12:58:36;;;;;;;7.57;6.40;;;;;;;;;;4996963;28;20644;-64
2022/04/05 13:01:02;;;;;;;6.63;6.00;;;;;;;;;;4996565;28;20184;-64
2022/04/05 13:03:32;;;;;;;5.93;5.33;;;;;;;;;;4994388;28;20603;-64
2022/04/05 13:08:43;;;;;;;5.83;5.33;;;;;;;;;;4995824;28;20702;-64
2022/04/05 13:11:29;;;;;;;8.73;6.23;;;;;;;;;;4995541;28;20176;-64
2022/04/05 13:14:12;;;;;;;7.03;5.83;;;;;;;;;;4995465;28;20227;-64
2022/04/05 13:16:39;;;;;;;7.57;6.47;;;;;;;;;;4978008;28;20183;-64
2022/04/05 13:19:09;;;;;;;8.37;6.80;;;;;;;;;;4995225;28;20246;-64
2022/04/05 13:21:47;;;;;;;7.13;6.07;;;;;;;;;;4977840;28;20220;-65
2022/04/05 13:24:13;;;;;;;6.70;5.77;;;;;;;;;;4977943;28;20271;-64
2022/04/05 13:26:41;;;;;;;9.10;5.77;;;;;;;;;;4978271;28;20568;-63
2022/04/05 13:29:10;;;;;;;7.27;5.80;;;;;;;;;;4999104;28;20203;-64
2022/04/05 13:32:00;;;;;;;6.30;5.70;;;;;;;;;;5001028;28;20204;-64
2022/04/05 13:34:27;;;;;;;6.27;5.67;;;;;;;;;;4979201;28;20181;-64
2022/04/05 13:36:54;;;;;;;13.10;8.77;;;;;;;;;;4995897;28;20688;-64
2022/04/05 13:39:21;;;;;;;8.20;6.40;;;;;;;;;;4995377;28;20564;-64
2022/04/05 13:41:47;;;;;;;7.20;6.27;;;;;;;;;;4995088;28;20204;-64
2022/04/05 13:44:13;;;;;;;6.87;6.27;;;;;;;;;;4977535;28;20288;-64
2022/04/05 13:46:40;;;;;;;7.30;5.60;;;;;;;;;;4977744;28;20192;-64
2022/04/05 13:49:09;;;;;;;6.50;5.40;;;;;;;;;;4995262;28;20207;-66
2022/04/05 13:51:36;;;;;;;6.27;5.43;;;;;;;;;;4994931;28;20176;-63
2022/04/05 13:54:02;;;;;;;5.50;5.00;;;;;;;;;;4994938;28;20543;-64
2022/04/05 13:56:29;;;;;;;5.63;5.13;;;;;;;;;;4977459;28;20173;-64
2022/04/05 13:58:56;;;;;;;6.03;5.43;;;;;;;;;;4994701;28;20751;-64
2022/04/05 14:01:24;;;;;;;8.40;5.27;;;;;;;;;;4994627;28;20212;-64
2022/04/05 14:03:51;;;;;;;5.20;4.60;;;;;;;;;;4995962;28;20212;-64
2022/04/05 14:06:17;;;;;;;6.27;4.40;;;;;;;;;;4978474;28;20271;-64
2022/04/05 14:08:44;;;;;;;5.47;4.33;;;;;;;;;;4978346;28;20259;-64
2022/04/05 14:11:10;;;;;;;4.60;4.20;;;;;;;;;;4962358;28;20588;-64
2022/04/05 14:13:36;;;;;;;4.57;4.10;;;;;;;;;;4995886;28;20283;-64
2022/04/05 14:16:02;;;;;;;7.63;4.80;;;;;;;;;;4995328;28;20235;-64
2022/04/05 14:18:29;;;;;;;5.20;4.67;;;;;;;;;;4995691;28;20189;-66
2022/04/05 14:20:55;;;;;;;6.90;4.63;;;;;;;;;;4995848;28;20177;-65
2022/04/05 14:23:21;;;;;;;6.17;4.87;;;;;;;;;;4995750;28;20203;-64
2022/04/05 14:25:47;;;;;;;5.73;4.97;;;;;;;;;;5034681;23;20242;-65
2022/04/05 14:28:13;;;;;;;6.00;5.43;;;;;;;;;;4997214;28;20208;-65
2022/04/05 14:30:40;;;;;;;6.70;4.80;;;;;;;;;;5014750;28;20551;-65
2022/04/05 14:33:06;;;;;;;6.40;5.37;;;;;;;;;;4996893;28;20714;-65
2022/04/05 14:35:33;;;;;;;5.43;4.93;;;;;;;;;;5014887;28;20573;-65